Time;durP1;ratioP1;P1;durP2;ratioP2;P2;SDS_P1;SDS_P2;PMS_P1;PMS_P2;Temp;Humidity;BMP_temperature;BMP_pressure;BME280_temperature;BME280_humidity;BME280_pressure;Samples;Min_cycle;Max_cycle;Signal;HPM_P1;HPM_P2
2022/06/23 00:00:57;;;;;;;5.45;3.53;;;11.90;99.90;;;;;;4974979;28;20113;-78
2022/06/23 00:03:24;;;;;;;5.80;4.10;;;11.90;99.90;;;;;;4970919;28;20041;-78
2022/06/23 00:05:56;;;;;;;4.88;3.70;;;11.70;99.90;;;;;;4983768;28;20030;-78
2022/06/23 00:08:21;;;;;;;6.28;4.40;;;11.70;99.90;;;;;;4959829;28;20448;-77
2022/06/23 00:10:57;;;;;;;5.95;3.90;;;11.60;99.90;;;;;;4984093;28;20490;-77
2022/06/23 00:13:33;;;;;;;7.18;4.63;;;11.60;99.90;;;;;;4979416;28;20065;-78
2022/06/23 00:15:59;;;;;;;7.75;4.45;;;11.60;99.90;;;;;;4992023;28;20026;-78
2022/06/23 00:18:31;;;;;;;5.80;3.63;;;11.70;99.90;;;;;;4979710;28;20391;-78
2022/06/23 00:21:03;;;;;;;6.40;3.97;;;11.50;99.90;;;;;;4979496;28;20042;-77
2022/06/23 00:23:45;;;;;;;7.65;4.40;;;11.50;99.90;;;;;;4991219;28;20029;-78
2022/06/23 00:26:20;;;;;;;7.80;4.18;;;11.60;99.90;;;;;;4971404;28;20379;-78
2022/06/23 00:29:05;;;;;;;6.35;3.72;;;11.70;99.90;;;;;;4977647;28;20039;-78
2022/06/23 00:31:35;;;;;;;5.18;3.90;;;11.60;99.90;;;;;;4986337;28;20054;-78
2022/06/23 00:34:21;;;;;;;7.82;4.30;;;11.60;99.90;;;;;;4978860;28;20030;-78
2022/06/23 00:36:54;;;;;;;5.68;4.03;;;11.40;99.90;;;;;;4979231;28;20038;-78
2022/06/23 00:39:22;;;;;;;8.68;4.50;;;11.70;99.90;;;;;;4978850;28;20093;-78
2022/06/23 00:41:49;;;;;;;5.85;4.20;;;11.80;99.90;;;;;;4978937;28;20019;-78
2022/06/23 00:44:26;;;;;;;5.50;3.92;;;11.80;99.90;;;;;;4978679;28;20386;-78
2022/06/23 00:46:55;;;;;;;6.45;4.15;;;11.70;99.90;;;;;;4978425;28;20460;-78
2022/06/23 00:49:41;;;;;;;6.45;4.00;;;11.60;99.90;;;;;;4978096;28;20019;-78
2022/06/23 00:52:18;;;;;;;4.97;3.80;;;11.70;99.90;;;;;;4964787;28;20027;-78
2022/06/23 00:54:49;;;;;;;6.50;4.43;;;11.60;99.90;;;;;;4967121;28;20074;-78
2022/06/23 00:57:27;;;;;;;6.45;4.53;;;11.60;99.90;;;;;;4978307;28;20458;-78
2022/06/23 01:00:17;;;;;;;7.10;4.00;;;11.70;99.90;;;;;;4971666;28;20478;-77
2022/06/23 01:03:01;;;;;;;7.32;4.40;;;11.60;99.90;;;;;;4973656;28;20479;-78
2022/06/23 01:05:45;;;;;;;5.60;3.88;;;11.70;99.90;;;;;;4967108;28;20039;-78
2022/06/23 01:08:40;;;;;;;6.90;4.85;;;11.60;99.90;;;;;;4960745;28;20034;-78
2022/06/23 01:11:12;;;;;;;5.82;4.45;;;11.70;99.90;;;;;;4974678;28;20047;-78
2022/06/23 01:13:47;;;;;;;6.05;4.38;;;11.70;99.90;;;;;;4979594;28;20019;-78
2022/06/23 01:16:24;;;;;;;7.20;4.93;;;11.40;99.90;;;;;;4978708;28;20027;-77
2022/06/23 01:18:59;;;;;;;10.77;4.30;;;11.40;99.90;;;;;;4979344;28;20046;-78
2022/06/23 01:21:43;;;;;;;6.32;4.20;;;11.50;99.90;;;;;;4977321;28;20078;-77
2022/06/23 01:24:28;;;;;;;6.47;4.53;;;11.40;99.90;;;;;;4978593;28;20035;-77
2022/06/23 01:27:08;;;;;;;6.72;4.25;;;11.30;99.90;;;;;;4972684;28;20030;-78
2022/06/23 01:29:36;;;;;;;6.45;4.05;;;11.40;99.90;;;;;;4979213;28;20043;-78
2022/06/23 01:32:22;;;;;;;7.43;4.60;;;11.40;99.90;;;;;;4977727;28;20068;-78
2022/06/23 01:35:20;;;;;;;6.38;4.85;;;11.50;99.90;;;;;;4979698;28;20065;-78
2022/06/23 01:38:00;;;;;;;6.57;4.22;;;11.50;99.90;;;;;;4979430;28;20093;-78
2022/06/23 01:40:35;;;;;;;7.68;5.03;;;11.40;99.90;;;;;;4967752;28;20015;-78
2022/06/23 01:43:06;;;;;;;7.22;4.68;;;11.40;99.90;;;;;;4978591;28;20045;-78
2022/06/23 01:45:43;;;;;;;7.72;4.85;;;11.40;99.90;;;;;;4979376;28;20023;-78
2022/06/23 01:48:51;;;;;;;9.68;5.07;;;11.20;99.90;;;;;;4979443;28;20019;-78
2022/06/23 01:51:04;;;;;;;8.40;5.10;;;11.40;99.90;;;;;;4979277;28;20050;-77
2022/06/23 01:53:33;;;;;;;6.95;4.80;;;11.30;99.90;;;;;;4980058;28;20378;-78
2022/06/23 01:56:17;;;;;;;10.85;5.45;;;11.40;99.90;;;;;;4979134;28;20019;-78
2022/06/23 01:58:49;;;;;;;8.95;5.82;;;11.40;99.90;;;;;;4979040;28;20047;-78
2022/06/23 02:01:20;;;;;;;9.63;4.90;;;11.30;99.90;;;;;;4980544;28;20054;-78
2022/06/23 02:03:51;;;;;;;9.43;5.47;;;11.20;99.90;;;;;;4979896;28;20030;-78
2022/06/23 02:06:29;;;;;;;9.70;5.72;;;11.20;99.90;;;;;;4979105;28;20031;-78
2022/06/23 02:09:13;;;;;;;9.15;4.88;;;11.20;99.90;;;;;;4977313;28;20039;-77
2022/06/23 02:11:46;;;;;;;9.63;5.53;;;11.10;99.90;;;;;;4974149;28;20076;-78
2022/06/23 02:14:19;;;;;;;10.35;6.32;;;11.20;99.90;;;;;;4979432;28;20094;-78
2022/06/23 02:17:15;;;;;;;9.55;5.70;;;11.10;99.90;;;;;;4975306;28;20470;-78
2022/06/23 02:19:44;;;;;;;13.25;6.50;;;11.00;99.90;;;;;;4969392;28;20054;-77
2022/06/23 02:22:23;;;;;;;9.50;5.70;;;11.00;99.90;;;;;;4972680;28;20031;-77
2022/06/23 02:24:55;;;;;;;8.98;5.53;;;11.00;99.90;;;;;;4978422;28;20034;-78
2022/06/23 02:27:38;;;;;;;11.55;5.95;;;11.10;99.90;;;;;;4975490;28;20031;-78
2022/06/23 02:30:15;;;;;;;10.57;6.15;;;11.10;99.90;;;;;;4979361;28;20046;-78
2022/06/23 02:33:02;;;;;;;10.40;5.72;;;11.00;99.90;;;;;;4979891;28;20090;-78
2022/06/23 02:35:40;;;;;;;10.57;6.40;;;11.00;99.90;;;;;;4980304;28;20109;-78
2022/06/23 02:38:25;;;;;;;13.57;7.30;;;11.10;99.90;;;;;;4978080;28;20027;-78
2022/06/23 02:40:56;;;;;;;10.20;6.05;;;11.10;99.90;;;;;;4970816;28;20098;-78
2022/06/23 02:43:25;;;;;;;;;;;11.00;99.90;;;;;;4979567;28;20027;-78
2022/06/23 02:46:13;;;;;;;11.40;5.95;;;10.90;99.90;;;;;;4977871;28;19906;-78
2022/06/23 02:48:53;;;;;;;10.23;5.78;;;10.90;99.90;;;;;;4965608;28;20027;-78
2022/06/23 02:51:31;;;;;;;9.73;5.45;;;10.80;99.90;;;;;;4977298;28;20019;-78
2022/06/23 02:54:16;;;;;;;9.07;5.53;;;10.70;99.90;;;;;;4978084;28;20077;-78
2022/06/23 02:57:10;;;;;;;10.23;6.25;;;10.70;99.90;;;;;;4977419;28;20041;-78
2022/06/23 02:59:44;;;;;;;9.82;5.95;;;10.70;99.90;;;;;;4977658;28;20386;-78
2022/06/23 03:02:48;;;;;;;12.02;5.95;;;10.70;99.90;;;;;;4964271;28;20039;-78
2022/06/23 03:05:30;;;;;;;11.15;6.47;;;10.80;99.90;;;;;;4974797;28;20725;-78
2022/06/23 03:08:02;;;;;;;11.70;6.30;;;10.80;99.90;;;;;;4974535;28;20027;-78
2022/06/23 03:10:38;;;;;;;11.35;7.05;;;10.70;99.90;;;;;;4977027;28;20035;-78
2022/06/23 03:13:10;;;;;;;14.88;6.60;;;10.80;99.90;;;;;;4976783;28;20023;-78
2022/06/23 03:16:08;;;;;;;11.57;6.45;;;10.80;99.90;;;;;;4976457;28;20022;-78
2022/06/23 03:18:48;;;;;;;13.35;6.82;;;10.90;99.90;;;;;;4967546;28;20525;-78
2022/06/23 03:21:40;;;;;;;13.55;6.60;;;10.80;99.90;;;;;;4968210;28;20031;-78
2022/06/23 03:24:12;;;;;;;12.00;6.95;;;10.80;99.90;;;;;;4976303;28;20035;-78
2022/06/23 03:26:45;;;;;;;12.52;7.10;;;10.80;99.90;;;;;;4976800;28;20470;-78
2022/06/23 03:29:36;;;;;;;17.42;7.68;;;10.90;99.90;;;;;;4977497;28;20023;-78
2022/06/23 03:32:20;;;;;;;;;;;10.90;99.90;;;;;;4970519;28;20428;-78
2022/06/23 03:34:45;;;;;;;12.35;7.22;;;10.90;99.90;;;;;;4969411;28;19916;-78
2022/06/23 03:37:20;;;;;;;15.20;7.10;;;11.00;99.90;;;;;;4973602;28;20031;-78
2022/06/23 03:43:04;;;;;;;12.10;7.57;;;11.10;99.90;;;;;;4973295;28;20082;-78
2022/06/23 03:45:32;;;;;;;13.52;7.55;;;11.10;99.90;;;;;;4968622;28;20084;-78
2022/06/23 03:48:16;;;;;;;13.38;7.68;;;11.20;99.90;;;;;;4976820;28;20027;-78
2022/06/23 03:50:50;;;;;;;13.45;7.65;;;11.30;99.90;;;;;;4967583;28;20031;-78
2022/06/23 03:53:21;;;;;;;15.18;8.40;;;11.30;99.90;;;;;;4973034;28;20014;-78
2022/06/23 03:56:04;;;;;;;17.80;8.63;;;11.30;99.90;;;;;;4967499;28;20444;-78
2022/06/23 03:58:33;;;;;;;13.88;7.90;;;11.40;99.90;;;;;;4975952;28;20022;-78
2022/06/23 04:01:12;;;;;;;17.48;7.90;;;11.50;99.90;;;;;;4978896;28;20034;-78
2022/06/23 04:03:40;;;;;;;16.33;8.10;;;11.50;99.90;;;;;;4977873;28;20383;-77
2022/06/23 04:06:18;;;;;;;17.00;8.40;;;12.30;99.90;;;;;;4976770;28;20023;-77
2022/06/23 04:08:53;;;;;;;18.50;8.93;;;13.90;99.90;;;;;;4975112;28;20019;-78
2022/06/23 04:14:09;;;;;;;13.55;7.53;;;15.70;99.90;;;;;;4969650;28;20097;-78
2022/06/23 04:16:36;;;;;;;13.80;7.20;;;16.30;93.50;;;;;;4973564;28;20057;-78
2022/06/23 04:19:19;;;;;;;13.27;7.18;;;17.40;12.40;;;;;;4975720;28;20027;-78
2022/06/23 04:21:47;;;;;;;12.32;7.38;;;17.90;1.00;;;;;;4974247;28;20054;-77
2022/06/23 04:24:20;;;;;;;10.60;6.95;;;18.30;1.00;;;;;;4972878;28;20082;-77
2022/06/23 04:26:51;;;;;;;10.98;6.90;;;18.90;1.00;;;;;;4983878;28;20031;-78
2022/06/23 04:29:28;;;;;;;11.80;6.93;;;19.90;99.90;;;;;;4974061;28;20356;-77
2022/06/23 04:32:29;;;;;;;8.57;6.05;;;20.40;99.90;;;;;;4963915;28;20046;-78
2022/06/23 04:35:05;;;;;;;10.13;6.18;;;21.00;99.90;;;;;;4962690;28;20074;-78
2022/06/23 04:37:41;;;;;;;11.30;6.43;;;21.60;99.90;;;;;;4955288;28;20106;-78
2022/06/23 04:40:18;;;;;;;8.98;6.60;;;22.20;99.90;;;;;;4954626;28;20038;-77
2022/06/23 04:42:57;;;;;;;10.88;6.68;;;21.50;99.90;;;;;;4981815;28;20038;-78
2022/06/23 04:45:34;;;;;;;10.32;7.00;;;21.80;99.90;;;;;;4974195;28;20021;-78
2022/06/23 04:48:05;;;;;;;10.07;7.10;;;23.90;99.90;;;;;;4974128;28;20038;-78
2022/06/23 04:50:50;;;;;;;8.98;6.25;;;24.00;99.90;;;;;;4973770;28;20125;-78
2022/06/23 04:54:17;;;;;;;7.05;5.32;;;23.40;99.90;;;;;;4977191;28;20035;-78
2022/06/23 04:56:48;;;;;;;8.75;6.63;;;24.70;99.90;;;;;;4953704;28;20415;-78
2022/06/23 04:59:25;;;;;;;10.10;6.80;;;24.50;99.90;;;;;;4977227;28;20046;-79
2022/06/23 05:01:53;;;;;;;9.05;6.68;;;24.70;99.90;;;;;;4957896;28;20035;-78
2022/06/23 05:04:39;;;;;;;8.65;6.82;;;26.20;99.90;;;;;;4957433;28;20027;-78
2022/06/23 05:07:16;;;;;;;8.02;6.35;;;24.30;99.90;;;;;;4961889;28;20105;-78
2022/06/23 05:09:43;;;;;;;9.52;7.22;;;23.30;99.90;;;;;;4976120;28;20027;-78
2022/06/23 05:12:32;;;;;;;8.70;6.85;;;23.90;99.90;;;;;;4976492;28;20031;-78
2022/06/23 05:15:33;;;;;;;8.20;6.32;;;25.70;99.90;;;;;;4976508;28;20113;-78
2022/06/23 05:18:16;;;;;;;8.50;6.50;;;26.50;99.90;;;;;;4967941;28;20046;-78
2022/06/23 05:20:48;;;;;;;8.05;6.35;;;26.50;99.90;;;;;;4976588;28;20019;-78
2022/06/23 05:23:21;;;;;;;7.68;6.07;;;27.00;99.90;;;;;;4976599;28;20042;-78
2022/06/23 05:25:49;;;;;;;7.65;6.43;;;27.70;99.90;;;;;;4976689;28;20390;-78
2022/06/23 05:28:23;;;;;;;8.52;6.95;;;27.00;99.90;;;;;;4976632;28;20023;-78
2022/06/23 05:30:55;;;;;;;8.23;6.28;;;27.80;99.90;;;;;;4956862;28;20043;-78
2022/06/23 05:33:30;;;;;;;7.45;6.07;;;26.30;99.90;;;;;;4957898;29;20066;-78
2022/06/23 05:36:06;;;;;;;8.43;6.45;;;28.00;99.90;;;;;;4957660;28;20427;-78
2022/06/23 05:38:48;;;;;;;7.78;6.60;;;28.60;99.90;;;;;;4965815;28;20031;-77
2022/06/23 05:41:32;;;;;;;7.13;6.20;;;31.50;99.90;;;;;;4976422;28;20121;-78
2022/06/23 05:43:58;;;;;;;7.47;6.25;;;31.10;99.90;;;;;;4976431;28;20039;-78
2022/06/23 05:46:28;;;;;;;8.00;6.57;;;29.90;99.90;;;;;;4973837;28;20062;-78
2022/06/23 05:49:00;;;;;;;9.25;6.53;;;29.80;99.90;;;;;;4966128;28;20061;-78
2022/06/23 05:51:44;;;;;;;8.35;6.75;;;30.10;99.90;;;;;;4976126;28;20031;-78
2022/06/23 05:54:33;;;;;;;7.88;6.47;;;30.40;99.90;;;;;;4982817;28;20041;-78
2022/06/23 05:57:19;;;;;;;;;;;30.70;99.90;;;;;;4978479;28;20666;-78
2022/06/23 06:00:33;;;;;;;7.28;5.30;;;30.50;99.90;;;;;;4995084;28;19933;-78
2022/06/23 06:03:06;;;;;;;7.28;5.72;;;29.40;99.90;;;;;;4969329;28;20038;-78
2022/06/23 06:05:37;;;;;;;7.53;5.35;;;28.80;99.90;;;;;;4973554;28;20493;-78
2022/06/23 06:08:12;;;;;;;6.85;5.90;;;29.00;99.90;;;;;;4971133;28;20035;-78
2022/06/23 06:10:38;;;;;;;7.65;5.75;;;30.40;99.90;;;;;;4975091;28;20050;-78
2022/06/23 06:13:07;;;;;;;6.32;5.43;;;27.90;99.90;;;;;;4975218;28;20039;-78
2022/06/23 06:15:38;;;;;;;7.50;6.60;;;27.50;99.90;;;;;;4975331;28;20487;-78
2022/06/23 06:18:16;;;;;;;7.18;6.30;;;29.70;99.90;;;;;;4974974;28;20652;-78
2022/06/23 06:20:42;;;;;;;6.82;6.13;;;31.40;99.90;;;;;;4970911;28;20023;-78
2022/06/23 06:23:15;;;;;;;8.40;6.47;;;31.10;99.90;;;;;;4981482;28;20034;-78
2022/06/23 06:25:47;;;;;;;8.90;6.47;;;29.70;99.90;;;;;;4968531;28;20022;-78
2022/06/23 06:28:24;;;;;;;6.50;5.80;;;29.40;99.90;;;;;;4994245;28;20102;-79
2022/06/23 06:31:22;;;;;;;8.15;6.45;;;29.90;99.90;;;;;;4968112;28;20058;-78
2022/06/23 06:34:05;;;;;;;8.45;6.28;;;30.40;99.90;;;;;;4995076;28;20053;-78
2022/06/23 06:36:41;;;;;;;7.45;6.45;;;32.00;99.90;;;;;;4978147;28;20023;-78
2022/06/23 06:39:24;;;;;;;9.00;6.80;;;32.50;99.90;;;;;;4975267;28;20023;-78
2022/06/23 06:41:56;;;;;;;7.85;6.80;;;32.20;99.90;;;;;;4975171;28;20022;-78
2022/06/23 06:44:22;;;;;;;9.15;6.50;;;33.80;99.90;;;;;;4975053;28;20058;-78
2022/06/23 06:46:48;;;;;;;7.53;6.55;;;32.80;99.90;;;;;;4974794;28;20058;-78
2022/06/23 06:49:18;;;;;;;8.45;6.10;;;34.10;99.90;;;;;;4974665;28;20030;-78
2022/06/23 06:51:45;;;;;;;6.93;6.00;;;33.80;99.90;;;;;;4974747;28;20031;-78
2022/06/23 06:54:16;;;;;;;7.65;6.93;;;35.30;99.90;;;;;;4973398;28;20439;-78
2022/06/23 06:56:53;;;;;;;7.63;6.63;;;32.70;99.90;;;;;;4973839;28;20026;-78
2022/06/23 06:59:54;;;;;;;7.00;5.88;;;33.70;99.90;;;;;;4973744;28;20423;-78
2022/06/23 07:02:46;;;;;;;9.05;6.18;;;36.10;99.90;;;;;;4972275;28;20039;-78
2022/06/23 07:05:23;;;;;;;7.55;6.30;;;35.70;99.90;;;;;;4962485;28;20528;-78
2022/06/23 07:08:04;;;;;;;7.70;6.68;;;35.30;99.90;;;;;;4973771;28;20549;-78
2022/06/23 07:10:52;;;;;;;6.60;6.00;;;32.60;99.90;;;;;;4973845;28;20101;-78
2022/06/23 07:13:33;;;;;;;7.05;6.13;;;35.80;99.90;;;;;;4973731;28;20027;-78
2022/06/23 07:16:24;;;;;;;9.85;6.40;;;35.60;99.90;;;;;;4986928;28;20030;-78
2022/06/23 07:19:03;;;;;;;8.30;6.30;;;36.60;99.90;;;;;;4960810;28;20382;-78
2022/06/23 07:21:54;;;;;;;6.78;6.07;;;36.50;99.90;;;;;;4992188;28;20042;-78
2022/06/23 07:24:38;;;;;;;7.10;6.40;;;36.20;99.90;;;;;;4960396;28;20026;-78
2022/06/23 07:27:32;;;;;;;6.63;5.93;;;33.20;99.90;;;;;;4975062;28;20050;-78
2022/06/23 07:30:09;;;;;;;8.05;6.53;;;33.40;99.90;;;;;;4966574;28;20078;-78
2022/06/23 07:33:06;;;;;;;6.97;6.30;;;34.90;99.90;;;;;;4973063;28;20146;-78
2022/06/23 07:35:48;;;;;;;7.88;5.93;;;38.10;99.90;;;;;;4972795;28;20022;-78
2022/06/23 07:38:31;;;;;;;8.60;6.43;;;37.30;99.90;;;;;;4973496;28;20019;-78
2022/06/23 07:41:25;;;;;;;7.07;6.35;;;37.50;99.90;;;;;;4954162;28;20420;-78
2022/06/23 07:44:04;;;;;;;7.53;6.47;;;37.80;99.90;;;;;;4949037;28;20066;-78
2022/06/23 07:46:30;;;;;;;;;;;36.30;99.90;;;;;;4975158;28;20030;-78
2022/06/23 07:48:58;;;;;;;8.65;6.03;;;36.30;99.90;;;;;;4987542;28;19922;-77
2022/06/23 07:51:25;;;;;;;7.25;6.55;;;34.90;99.90;;;;;;4972971;28;20089;-77
2022/06/23 07:53:54;;;;;;;6.97;6.28;;;34.50;99.90;;;;;;4986338;28;20026;-77
2022/06/23 07:56:24;;;;;;;7.03;6.32;;;35.20;99.90;;;;;;4973833;28;20030;-78
2022/06/23 07:58:55;;;;;;;6.85;6.15;;;34.80;99.90;;;;;;4973332;28;20038;-77
2022/06/23 08:01:26;;;;;;;6.57;5.93;;;34.20;99.90;;;;;;4974262;28;20023;-77
2022/06/23 08:04:26;;;;;;;7.00;6.30;;;36.40;99.90;;;;;;4973844;28;20030;-77
2022/06/23 08:06:55;;;;;;;7.50;6.68;;;35.40;99.90;;;;;;4972768;28;20513;-77
2022/06/23 08:09:32;;;;;;;6.90;6.30;;;35.60;99.90;;;;;;4986293;28;20031;-77
2022/06/23 08:18:24;;;;;;;7.45;5.82;;;37.40;99.90;;;;;;4967734;28;20022;-77
2022/06/23 08:21:01;;;;;;;5.90;5.30;;;35.70;99.90;;;;;;4982104;28;20105;-77
2022/06/23 08:23:30;;;;;;;7.10;5.78;;;38.10;99.90;;;;;;4981456;28;20369;-76
2022/06/23 08:25:56;;;;;;;5.60;5.10;;;38.00;99.90;;;;;;4974121;28;20063;-76
2022/06/23 08:28:22;;;;;;;6.93;5.28;;;38.60;99.90;;;;;;4973805;28;20043;-77
2022/06/23 08:30:48;;;;;;;5.72;5.07;;;35.50;99.90;;;;;;4958031;28;20473;-77
2022/06/23 08:33:15;;;;;;;7.03;5.30;;;36.10;99.90;;;;;;4970101;28;20086;-77
2022/06/23 08:35:42;;;;;;;5.90;5.18;;;34.90;99.90;;;;;;4983743;28;20027;-77
2022/06/23 08:38:10;;;;;;;6.22;5.40;;;37.30;99.90;;;;;;4977544;28;20072;-77
2022/06/23 08:41:02;;;;;;;8.15;6.10;;;35.80;99.90;;;;;;4973199;28;20023;-77
2022/06/23 08:43:50;;;;;;;7.43;6.10;;;36.60;99.90;;;;;;4958266;28;20041;-77
2022/06/23 08:46:49;;;;;;;7.18;5.30;;;37.80;99.90;;;;;;4964782;28;20035;-77
2022/06/23 08:49:30;;;;;;;6.43;5.85;;;37.20;99.90;;;;;;4977448;28;20074;-76
2022/06/23 08:52:19;;;;;;;6.13;5.57;;;37.50;99.90;;;;;;4977757;28;20380;-77
2022/06/23 08:55:09;;;;;;;6.10;5.07;;;36.90;99.90;;;;;;4977630;28;20023;-77
2022/06/23 08:57:44;;;;;;;7.25;5.60;;;38.00;99.90;;;;;;4969844;28;20023;-77
2022/06/23 09:00:29;;;;;;;6.88;4.93;;;37.50;99.90;;;;;;4960638;28;20110;-77
2022/06/23 09:03:12;;;;;;;7.22;5.20;;;38.40;99.90;;;;;;4958315;28;20055;-76
2022/06/23 09:05:58;;;;;;;5.40;4.85;;;36.10;99.90;;;;;;4958235;28;20031;-76
2022/06/23 09:08:43;;;;;;;7.97;5.78;;;37.70;99.90;;;;;;4963632;28;20027;-76
2022/06/23 09:11:18;;;;;;;5.97;5.03;;;36.80;99.90;;;;;;4958234;28;20035;-76
2022/06/23 09:14:22;;;;;;;5.32;4.72;;;35.90;99.90;;;;;;4962644;28;20057;-77
2022/06/23 09:17:12;;;;;;;6.28;5.22;;;37.10;99.90;;;;;;4957676;29;20035;-77
2022/06/23 09:20:13;;;;;;;5.53;5.03;;;35.90;99.90;;;;;;4969631;28;20031;-76
2022/06/23 09:23:14;;;;;;;5.35;4.82;;;38.50;99.90;;;;;;4976419;28;20054;-76
2022/06/23 09:26:00;;;;;;;5.15;4.20;;;40.10;99.90;;;;;;4966672;28;20038;-76
2022/06/23 09:28:51;;;;;;;5.70;4.63;;;37.60;99.90;;;;;;4960487;28;20035;-76
2022/06/23 09:31:43;;;;;;;7.53;5.35;;;38.10;99.90;;;;;;4957587;28;20055;-77
2022/06/23 09:34:17;;;;;;;7.13;4.88;;;37.80;99.90;;;;;;4969212;28;20031;-76
2022/06/23 09:37:04;;;;;;;7.45;4.95;;;39.00;99.90;;;;;;4971979;28;20019;-76
2022/06/23 09:39:54;;;;;;;5.00;4.32;;;36.30;99.90;;;;;;4968102;28;20081;-77
2022/06/23 09:42:43;;;;;;;4.63;4.13;;;38.60;99.90;;;;;;4957647;28;20027;-76
2022/06/23 09:45:43;;;;;;;8.30;4.78;;;37.60;99.90;;;;;;4972318;28;20093;-77
2022/06/23 09:48:17;;;;;;;5.10;4.57;;;38.90;99.90;;;;;;4981042;28;20391;-77
2022/06/23 09:51:19;;;;;;;4.95;3.90;;;38.10;99.90;;;;;;4963100;28;20027;-76
2022/06/23 09:54:12;;;;;;;5.75;4.03;;;37.30;99.90;;;;;;4977130;28;20069;-76
2022/06/23 09:57:03;;;;;;;6.15;4.15;;;37.80;99.90;;;;;;4976758;28;20030;-78
2022/06/23 09:59:37;;;;;;;5.25;4.75;;;39.90;99.90;;;;;;4964192;28;20038;-78
2022/06/23 10:02:16;;;;;;;4.00;3.60;;;35.60;99.90;;;;;;4957772;29;20035;-78
2022/06/23 10:05:02;;;;;;;5.15;4.35;;;36.20;99.90;;;;;;4957392;29;20038;-78
2022/06/23 10:07:37;;;;;;;4.72;3.45;;;36.60;99.90;;;;;;4970144;28;20667;-77
2022/06/23 10:10:41;;;;;;;4.75;4.22;;;38.80;99.90;;;;;;4965908;28;20039;-77
2022/06/23 10:13:24;;;;;;;5.03;4.05;;;37.90;99.90;;;;;;4971800;28;20058;-75
2022/06/23 10:15:55;;;;;;;5.25;4.10;;;39.00;99.90;;;;;;4973710;28;20157;-75
2022/06/23 10:18:37;;;;;;;4.38;3.97;;;39.90;99.90;;;;;;4974321;28;20465;-75
2022/06/23 10:21:29;;;;;;;4.15;3.75;;;40.00;99.90;;;;;;4988988;28;20022;-76
2022/06/23 10:24:33;;;;;;;4.80;4.35;;;36.70;99.90;;;;;;4982497;28;20031;-77
2022/06/23 10:27:23;;;;;;;6.85;4.15;;;35.00;99.90;;;;;;4992779;28;20160;-77
2022/06/23 10:29:52;;;;;;;4.93;3.70;;;35.90;99.90;;;;;;4990510;28;20110;-76
2022/06/23 10:32:34;;;;;;;5.38;3.78;;;38.10;99.90;;;;;;4985018;28;20045;-76
2022/06/23 10:35:31;;;;;;;3.92;3.58;;;38.80;99.90;;;;;;4971072;28;20030;-76
2022/06/23 10:38:12;;;;;;;5.53;3.30;;;36.30;99.90;;;;;;4963026;28;20034;-76
2022/06/23 10:41:12;;;;;;;4.63;3.17;;;35.60;99.90;;;;;;4971733;28;20033;-76
2022/06/23 10:44:05;;;;;;;6.10;3.30;;;38.40;99.90;;;;;;4965372;28;20111;-76
2022/06/23 10:46:37;;;;;;;3.53;3.20;;;36.90;99.90;;;;;;4967124;28;20023;-76
2022/06/23 10:49:27;;;;;;;4.47;3.67;;;37.20;99.90;;;;;;4964802;28;20035;-76
2022/06/23 10:51:52;;;;;;;4.70;3.10;;;37.00;99.90;;;;;;4968928;28;20077;-76
2022/06/23 10:54:59;;;;;;;3.65;3.35;;;37.50;99.90;;;;;;4974329;28;20415;-76
2022/06/23 10:57:30;;;;;;;5.13;3.50;;;36.70;99.90;;;;;;4974405;28;20026;-76
2022/06/23 11:00:17;;;;;;;4.15;3.45;;;35.60;99.90;;;;;;4968781;28;20364;-76
2022/06/23 11:03:19;;;;;;;5.15;3.17;;;35.00;99.90;;;;;;4962493;28;20034;-76
2022/06/23 11:05:50;;;;;;;4.13;3.10;;;36.30;99.90;;;;;;4973236;28;20062;-76
2022/06/23 11:09:04;;;;;;;3.10;2.90;;;36.00;99.90;;;;;;4966796;28;20027;-76
2022/06/23 11:11:48;;;;;;;3.13;2.92;;;35.00;99.90;;;;;;4938128;29;20051;-76
2022/06/23 11:14:27;;;;;;;3.88;3.47;;;36.60;99.90;;;;;;4974549;28;20141;-76
2022/06/23 11:17:21;;;;;;;5.25;3.30;;;35.30;99.90;;;;;;4973663;28;20034;-76
2022/06/23 11:20:13;;;;;;;5.50;3.60;;;36.60;99.90;;;;;;4966895;28;20507;-76
2022/06/23 11:23:01;;;;;;;4.97;3.13;;;33.20;99.90;;;;;;4966432;28;20028;-76
2022/06/23 11:26:02;;;;;;;3.25;2.95;;;31.90;99.90;;;;;;4967728;28;20030;-77
2022/06/23 11:28:56;;;;;;;4.60;3.60;;;31.20;99.90;;;;;;4953227;29;20023;-76
2022/06/23 11:31:30;;;;;;;4.18;3.20;;;31.10;99.90;;;;;;4963904;28;20464;-76
2022/06/23 11:34:15;;;;;;;4.00;3.53;;;30.90;99.90;;;;;;4967048;28;20044;-76
2022/06/23 11:37:13;;;;;;;6.15;3.53;;;31.00;99.90;;;;;;4970642;28;20054;-76
2022/06/23 11:39:44;;;;;;;3.72;3.40;;;30.90;99.90;;;;;;4977550;28;20080;-76
2022/06/23 11:42:32;;;;;;;3.92;3.60;;;30.80;99.90;;;;;;4995344;28;20090;-76
2022/06/23 11:45:22;;;;;;;3.67;3.38;;;31.10;99.90;;;;;;4963401;28;20371;-76
2022/06/23 11:48:17;;;;;;;3.60;3.25;;;31.80;99.90;;;;;;4971299;28;20114;-76
2022/06/23 11:51:22;;;;;;;4.10;3.70;;;31.70;99.90;;;;;;4975010;28;20018;-77
2022/06/23 11:54:30;;;;;;;5.28;3.70;;;31.00;99.90;;;;;;4973067;28;20022;-77
2022/06/23 11:57:26;;;;;;;4.47;3.65;;;30.50;99.90;;;;;;4957982;28;20030;-77
2022/06/23 12:00:13;;;;;;;3.85;3.25;;;30.80;99.90;;;;;;4973933;28;20054;-76
2022/06/23 12:02:50;;;;;;;3.80;3.50;;;30.90;99.90;;;;;;4958234;28;20028;-76
2022/06/23 12:05:27;;;;;;;5.47;3.70;;;31.10;99.90;;;;;;4971383;28;20263;-76
2022/06/23 12:08:02;;;;;;;4.60;3.60;;;31.00;99.90;;;;;;4958714;28;20147;-76
2022/06/23 12:10:30;;;;;;;5.20;3.83;;;30.80;99.90;;;;;;4958532;28;20027;-76
2022/06/23 12:12:59;;;;;;;4.78;3.78;;;31.00;99.90;;;;;;4967363;28;20037;-76
2022/06/23 12:15:28;;;;;;;4.10;3.70;;;31.20;99.90;;;;;;4965381;28;20082;-76
2022/06/23 12:18:02;;;;;;;4.32;3.90;;;30.90;99.90;;;;;;4966250;28;20067;-76
2022/06/23 12:20:45;;;;;;;5.15;3.90;;;31.00;99.90;;;;;;4958248;28;20374;-76
2022/06/23 12:23:38;;;;;;;4.35;3.35;;;30.70;99.90;;;;;;4977310;28;20035;-76
2022/06/23 12:26:14;;;;;;;4.68;3.83;;;31.10;99.90;;;;;;4973266;28;20027;-77
2022/06/23 12:28:51;;;;;;;4.00;3.65;;;31.00;99.90;;;;;;4977709;28;20454;-76
2022/06/23 12:31:47;;;;;;;4.90;3.55;;;30.90;99.90;;;;;;4981037;28;20066;-76
2022/06/23 12:34:18;;;;;;;4.68;4.22;;;31.20;99.90;;;;;;4986339;28;20019;-76
2022/06/23 12:37:10;;;;;;;4.65;4.10;;;30.80;99.90;;;;;;4977389;28;20086;-77
2022/06/23 12:40:06;;;;;;;5.35;3.97;;;31.00;99.90;;;;;;4977172;28;20023;-77
2022/06/23 12:42:34;;;;;;;4.50;4.10;;;30.60;99.90;;;;;;4967126;28;20102;-77
2022/06/23 12:45:15;;;;;;;5.15;4.28;;;31.20;99.90;;;;;;4960528;28;20027;-76
2022/06/23 12:47:55;;;;;;;4.45;4.10;;;32.20;99.90;;;;;;4957669;28;20048;-76
2022/06/23 12:50:45;;;;;;;4.95;4.07;;;32.00;99.90;;;;;;4960514;28;20077;-76
2022/06/23 12:53:38;;;;;;;4.25;3.85;;;31.70;99.90;;;;;;4977133;28;20074;-77
2022/06/23 12:56:28;;;;;;;6.75;3.97;;;32.90;99.90;;;;;;4987973;28;20025;-76
2022/06/23 12:59:02;;;;;;;9.18;4.68;;;32.40;99.90;;;;;;4976693;28;20027;-76
2022/06/23 13:01:39;;;;;;;4.38;3.88;;;31.60;99.90;;;;;;4976743;28;20038;-76
2022/06/23 13:04:31;;;;;;;4.80;4.30;;;31.50;99.90;;;;;;4974669;28;20040;-76
2022/06/23 13:07:20;;;;;;;6.63;4.30;;;31.30;99.90;;;;;;4975804;28;20108;-76
2022/06/23 13:10:23;;;;;;;5.18;4.22;;;31.40;99.90;;;;;;4960439;28;20118;-76
2022/06/23 13:13:04;;;;;;;5.50;4.40;;;31.70;99.90;;;;;;4957329;28;20475;-78
2022/06/23 13:15:39;;;;;;;6.32;4.25;;;32.10;99.90;;;;;;4958642;28;20074;-76
2022/06/23 13:18:33;;;;;;;5.40;4.25;;;32.00;99.90;;;;;;4976839;28;20399;-77
2022/06/23 13:21:14;;;;;;;5.00;4.00;;;31.50;99.90;;;;;;4976445;28;20022;-76
2022/06/23 13:23:51;;;;;;;5.97;4.43;;;32.10;99.90;;;;;;4988194;28;20030;-76
2022/06/23 13:26:23;;;;;;;6.22;4.45;;;32.20;99.90;;;;;;4965665;28;20071;-76
2022/06/23 13:29:05;;;;;;;5.07;4.03;;;32.30;99.90;;;;;;4983581;28;20474;-76
2022/06/23 13:31:49;;;;;;;4.70;3.90;;;32.40;99.90;;;;;;4975160;28;20042;-76
2022/06/23 13:34:27;;;;;;;5.25;4.30;;;31.70;99.90;;;;;;4976270;28;20023;-76
2022/06/23 13:37:17;;;;;;;7.00;4.13;;;32.10;99.90;;;;;;4976484;28;20015;-76
2022/06/23 13:39:51;;;;;;;4.30;3.90;;;32.00;99.90;;;;;;4968301;28;20023;-76
2022/06/23 13:42:39;;;;;;;4.47;4.07;;;32.00;99.90;;;;;;4956802;28;20547;-75
2022/06/23 13:45:23;;;;;;;4.50;4.07;;;32.00;99.90;;;;;;4971917;28;20050;-77
2022/06/23 13:47:58;;;;;;;5.25;4.15;;;31.00;99.90;;;;;;4981403;28;20474;-76
2022/06/23 13:50:51;;;;;;;6.95;4.18;;;31.90;99.90;;;;;;4974552;28;20031;-76
2022/06/23 13:53:22;;;;;;;5.45;4.25;;;32.50;99.90;;;;;;4975851;28;20074;-76
2022/06/23 13:56:18;;;;;;;4.30;4.00;;;32.70;99.90;;;;;;4963510;28;20027;-76
2022/06/23 13:59:21;;;;;;;4.38;4.00;;;32.60;99.90;;;;;;4972142;28;20022;-76
2022/06/23 14:01:57;;;;;;;5.90;4.13;;;32.60;99.90;;;;;;4949399;28;20043;-77
2022/06/23 14:04:43;;;;;;;4.47;4.07;;;32.10;99.90;;;;;;4958334;28;20033;-76
2022/06/23 14:07:49;;;;;;;6.95;4.13;;;32.00;99.90;;;;;;4971507;28;20031;-76